Metar z połowy godziny Komunikat METAR ze strony awiacja.imgw.pl Metar G30 EPGD METAR EPGD 190230Z 22005KT CAVOK 16/12 Q1017 =